createdAt,value
2017-09-05T00:01:45.370Z,100365.02
2017-09-05T00:04:46.716Z,100360.46
2017-09-05T00:07:51.057Z,100362.09
2017-09-05T00:10:56.429Z,100363.66
2017-09-05T00:17:49.873Z,100362.31
2017-09-05T00:20:55.057Z,100354.01
2017-09-05T00:23:56.439Z,100362.86
2017-09-05T00:26:57.792Z,100358.58
2017-09-05T00:29:59.144Z,100352.23
2017-09-05T00:33:00.445Z,100353.00
2017-09-05T00:36:01.817Z,100352.59
2017-09-05T00:39:03.178Z,100363.20
2017-09-05T00:42:04.553Z,100370.33
2017-09-05T00:45:06.038Z,100366.22
2017-09-05T00:48:07.372Z,100359.29
2017-09-05T00:51:08.757Z,100355.25
2017-09-05T00:54:10.099Z,100362.64
2017-09-05T00:57:11.504Z,100360.87
2017-09-05T01:00:12.849Z,100364.19
2017-09-05T01:03:14.199Z,100368.48
2017-09-05T01:06:15.536Z,100368.75
2017-09-05T01:09:16.899Z,100373.73
2017-09-05T01:12:18.233Z,100363.78
2017-09-05T01:15:19.637Z,100359.94
2017-09-05T01:18:21.012Z,100367.50
2017-09-05T01:21:22.376Z,100368.33
2017-09-05T01:24:23.741Z,100373.80
2017-09-05T01:27:25.061Z,100368.99
2017-09-05T01:30:26.381Z,100368.73
2017-09-05T01:33:27.694Z,100377.25
2017-09-05T01:36:29.014Z,100367.56
2017-09-05T01:39:30.421Z,100367.49
2017-09-05T01:42:31.693Z,100361.28
2017-09-05T01:45:33.056Z,100369.42
2017-09-05T01:48:34.348Z,100369.87
2017-09-05T01:51:35.696Z,100366.86
2017-09-05T01:54:37.012Z,100374.48
2017-09-05T01:57:38.333Z,100358.14
2017-09-05T02:00:39.999Z,100364.69
2017-09-05T02:03:41.309Z,100365.02
2017-09-05T02:06:42.825Z,100356.02
2017-09-05T02:09:44.148Z,100339.92
2017-09-05T02:12:45.481Z,100337.43
2017-09-05T02:15:46.829Z,100335.17
2017-09-05T02:18:48.157Z,100340.25
2017-09-05T02:21:49.485Z,100328.09
2017-09-05T02:24:50.805Z,100320.00
2017-09-05T02:27:52.328Z,100320.31
2017-09-05T02:30:53.653Z,100317.05
2017-09-05T02:33:55.004Z,100305.94
2017-09-05T02:36:56.310Z,100310.27
2017-09-05T02:39:57.629Z,100306.28
2017-09-05T02:42:58.901Z,100312.20
2017-09-05T02:46:00.286Z,100310.23
2017-09-05T02:49:01.609Z,100311.28
2017-09-05T02:52:02.936Z,100301.02
2017-09-05T02:55:04.716Z,100307.26
2017-09-05T02:58:06.028Z,100300.59
2017-09-05T03:01:07.334Z,100298.67
2017-09-05T03:04:08.645Z,100304.95
2017-09-05T03:07:09.970Z,100294.72
2017-09-05T03:10:11.318Z,100301.20
2017-09-05T03:13:12.629Z,100311.61
2017-09-05T03:16:13.937Z,100300.05
2017-09-05T03:19:15.275Z,100306.86
2017-09-05T03:22:17.070Z,100312.50
2017-09-05T03:25:18.367Z,100309.36
2017-09-05T03:28:19.738Z,100316.45
2017-09-05T03:31:21.120Z,100314.48
2017-09-05T03:34:22.461Z,100319.52
2017-09-05T03:37:23.790Z,100315.63
2017-09-05T03:40:25.129Z,100305.63
2017-09-05T03:43:26.585Z,100300.33
2017-09-05T03:46:27.890Z,100299.06
2017-09-05T03:49:29.209Z,100306.20
2017-09-05T03:52:30.545Z,100299.94
2017-09-05T03:55:31.876Z,100306.48
2017-09-05T03:58:33.196Z,100303.56
2017-09-05T04:01:34.556Z,100304.85
2017-09-05T04:04:35.845Z,100305.12
2017-09-05T04:07:37.185Z,100305.78
2017-09-05T04:10:38.516Z,100313.23
2017-09-05T04:13:39.829Z,100310.84
2017-09-05T04:16:41.119Z,100317.67
2017-09-05T04:19:42.465Z,100317.10
2017-09-05T04:22:43.893Z,100325.77
2017-09-05T04:25:45.197Z,100315.94
2017-09-05T04:28:46.876Z,100309.25
2017-09-05T04:31:48.193Z,100318.48
2017-09-05T04:34:49.509Z,100317.95
2017-09-05T04:37:50.796Z,100312.85
2017-09-05T04:40:52.152Z,100327.31
2017-09-05T04:43:53.452Z,100315.45
2017-09-05T04:46:54.766Z,100310.81
2017-09-05T04:49:56.045Z,100314.89
2017-09-05T04:52:57.389Z,100319.52
2017-09-05T04:55:58.686Z,100312.73
2017-09-05T04:59:00.037Z,100312.63
2017-09-05T05:02:01.493Z,100299.35
2017-09-05T05:05:02.819Z,100305.67
2017-09-05T05:08:04.172Z,100313.38
2017-09-05T05:11:05.465Z,100312.80
2017-09-05T05:14:06.804Z,100315.86
2017-09-05T05:17:08.136Z,100309.03
2017-09-05T05:20:09.465Z,100322.37
2017-09-05T05:23:10.772Z,100328.80
2017-09-05T05:26:12.101Z,100334.06
2017-09-05T05:29:13.425Z,100328.49
2017-09-05T05:32:14.768Z,100331.06
2017-09-05T05:35:16.070Z,100326.42
2017-09-05T05:38:17.400Z,100325.23
2017-09-05T05:41:18.712Z,100322.95
2017-09-05T05:44:20.055Z,100324.88
2017-09-05T05:47:21.345Z,100318.37
2017-09-05T05:50:22.708Z,100318.73
2017-09-05T05:53:24.026Z,100323.81
2017-09-05T05:56:25.376Z,100313.36
2017-09-05T05:59:26.705Z,100312.61
2017-09-05T06:02:28.033Z,100306.17
2017-09-05T06:05:29.373Z,100314.30
2017-09-05T06:08:30.673Z,100319.61
2017-09-05T06:11:32.024Z,100327.24
2017-09-05T06:14:33.349Z,100317.41
2017-09-05T06:17:34.965Z,100312.38
2017-09-05T06:20:36.313Z,100311.55
2017-09-05T06:23:37.645Z,100312.34
2017-09-05T06:26:38.937Z,100307.52
2017-09-05T06:29:40.349Z,100317.42
2017-09-05T06:32:41.625Z,100314.83
2017-09-05T06:35:43.057Z,100308.23
2017-09-05T06:38:44.346Z,100308.89
2017-09-05T06:41:45.704Z,100306.98
2017-09-05T06:44:47.165Z,100307.84
2017-09-05T06:47:48.481Z,100311.91
2017-09-05T06:50:49.804Z,100317.27
2017-09-05T06:53:51.106Z,100312.95
2017-09-05T06:56:52.468Z,100316.33
2017-09-05T06:59:53.768Z,100314.62
2017-09-05T07:02:55.111Z,100315.78
2017-09-05T07:05:56.408Z,100309.43
2017-09-05T07:08:57.745Z,100315.30
2017-09-05T07:11:59.114Z,100312.45
2017-09-05T07:15:00.456Z,100309.41
2017-09-05T07:18:01.781Z,100299.69
2017-09-05T07:21:03.121Z,100307.12
2017-09-05T07:24:04.415Z,100308.20
2017-09-05T07:27:05.769Z,100303.16
2017-09-05T07:30:07.101Z,100303.92
2017-09-05T07:33:08.410Z,100310.38
2017-09-05T07:36:09.756Z,100303.98
2017-09-05T07:39:11.081Z,100305.39
2017-09-05T07:42:12.425Z,100311.56
2017-09-05T07:45:13.750Z,100312.57
2017-09-05T07:48:15.096Z,100309.92
2017-09-05T07:51:16.415Z,100300.84
2017-09-05T07:54:17.845Z,100307.97
2017-09-05T07:57:19.312Z,100301.23
2017-09-05T08:00:20.621Z,100307.08
2017-09-05T08:03:22.087Z,100303.36
2017-09-05T08:06:23.388Z,100309.11
2017-09-05T08:09:24.799Z,100297.63
2017-09-05T08:12:26.122Z,100298.66
2017-09-05T08:15:27.469Z,100300.20
2017-09-05T08:18:28.788Z,100299.09
2017-09-05T08:21:30.132Z,100301.02
2017-09-05T08:24:31.452Z,100305.02
2017-09-05T08:27:32.808Z,100296.64
2017-09-05T08:30:34.164Z,100299.48
2017-09-05T08:33:35.735Z,100297.98
2017-09-05T08:36:37.188Z,100293.86
2017-09-05T08:39:38.508Z,100292.80
2017-09-05T08:42:39.821Z,100299.23
2017-09-05T08:45:41.106Z,100297.98
2017-09-05T08:48:42.481Z,100304.86
2017-09-05T08:51:43.788Z,100299.20
2017-09-05T08:54:45.101Z,100307.67
2017-09-05T08:57:46.424Z,100296.29
2017-09-05T09:00:47.800Z,100299.19
2017-09-05T09:03:49.196Z,100288.75
2017-09-05T09:06:50.533Z,100285.75
2017-09-05T09:09:51.876Z,100298.24
2017-09-05T09:12:53.982Z,100290.73
2017-09-05T09:15:55.286Z,100295.36
2017-09-05T09:18:56.649Z,100292.50
2017-09-05T09:21:57.955Z,100292.77
2017-09-05T09:24:59.286Z,100296.55
2017-09-05T09:28:00.593Z,100295.40
2017-09-05T09:31:01.985Z,100290.22
2017-09-05T09:34:03.313Z,100291.23
2017-09-05T09:37:04.755Z,100295.64
2017-09-05T09:40:06.185Z,100291.28
2017-09-05T09:43:07.523Z,100286.25
2017-09-05T09:46:08.834Z,100295.53
2017-09-05T09:49:10.121Z,100289.41
2017-09-05T09:52:11.471Z,100298.26
2017-09-05T09:55:12.805Z,100290.70
2017-09-05T09:58:14.142Z,100281.44
2017-09-05T10:01:15.429Z,100278.09
2017-09-05T10:04:16.758Z,100280.97
2017-09-05T10:07:18.393Z,100290.86
2017-09-05T10:10:19.677Z,100283.40
2017-09-05T10:13:20.999Z,100285.80
2017-09-05T10:16:22.298Z,100274.30
2017-09-05T10:19:23.643Z,100283.69
2017-09-05T10:22:24.977Z,100273.03
2017-09-05T10:25:26.317Z,100263.43
2017-09-05T10:28:27.663Z,100269.55
2017-09-05T10:31:29.052Z,100265.03
2017-09-05T10:34:30.416Z,100269.64
2017-09-05T10:37:31.768Z,100261.50
2017-09-05T10:40:33.204Z,100255.44
2017-09-05T10:43:34.505Z,100264.00
2017-09-05T10:46:36.022Z,100263.13
2017-09-05T10:49:37.338Z,100253.80
2017-09-05T10:52:38.677Z,100251.78
2017-09-05T10:55:40.004Z,100255.98
2017-09-05T10:58:41.350Z,100254.58
2017-09-05T11:01:42.652Z,100246.46
2017-09-05T11:04:43.985Z,100246.28
2017-09-05T11:07:45.324Z,100242.94
2017-09-05T11:10:46.644Z,100237.45
2017-09-05T11:13:47.971Z,100250.07
2017-09-05T11:16:49.289Z,100251.03
2017-09-05T11:19:50.625Z,100253.21
2017-09-05T11:22:51.952Z,100245.34
2017-09-05T11:25:53.301Z,100245.64
2017-09-05T11:28:54.601Z,100232.35
2017-09-05T11:31:55.938Z,100235.59
2017-09-05T11:34:57.626Z,100242.48
2017-09-05T11:37:58.954Z,100240.85
2017-09-05T11:41:00.273Z,100237.58
2017-09-05T11:44:01.577Z,100239.61
2017-09-05T11:47:02.909Z,100244.45
2017-09-05T11:50:04.237Z,100232.34
2017-09-05T11:53:05.572Z,100238.62
2017-09-05T11:56:07.073Z,100238.55
2017-09-05T11:59:08.405Z,100243.83
2017-09-05T12:02:09.772Z,100231.19
2017-09-05T12:05:11.085Z,100243.09
2017-09-05T12:08:12.532Z,100231.84
2017-09-05T12:11:13.833Z,100222.80
2017-09-05T12:14:15.168Z,100222.41
2017-09-05T12:17:16.472Z,100216.48
2017-09-05T12:20:17.848Z,100220.32
2017-09-05T12:23:19.146Z,100214.88
2017-09-05T12:26:20.465Z,100229.37
2017-09-05T12:29:21.862Z,100226.51
2017-09-05T12:32:23.229Z,100217.89
2017-09-05T12:35:24.577Z,100225.81
2017-09-05T12:38:25.962Z,100216.80
2017-09-05T12:41:27.456Z,100211.91
2017-09-05T12:44:28.805Z,100213.34
2017-09-05T12:47:30.127Z,100210.09
2017-09-05T12:50:31.441Z,100215.21
2017-09-05T12:53:32.781Z,100202.38
2017-09-05T12:56:34.069Z,100216.37
2017-09-05T12:59:35.413Z,100216.14
2017-09-05T13:02:36.704Z,100208.08
2017-09-05T13:05:38.049Z,100216.06
2017-09-05T13:08:39.909Z,100207.16
2017-09-05T13:11:41.222Z,100217.19
2017-09-05T13:14:42.537Z,100207.64
2017-09-05T13:17:50.877Z,100202.45
2017-09-05T13:20:52.340Z,100209.00
2017-09-05T13:23:53.641Z,100205.98
2017-09-05T13:26:55.024Z,100204.44
2017-09-05T13:29:56.377Z,100200.88
2017-09-05T13:32:57.701Z,100203.81
2017-09-05T13:35:59.025Z,100192.37
2017-09-05T13:39:00.368Z,100193.41
2017-09-05T13:42:01.676Z,100195.34
2017-09-05T13:45:03.049Z,100185.86
2017-09-05T13:48:04.349Z,100187.56
2017-09-05T13:51:05.709Z,100184.91
2017-09-05T13:54:07.069Z,100181.96
2017-09-05T13:57:08.361Z,100186.14
2017-09-05T14:00:09.713Z,100183.27
2017-09-05T14:03:11.013Z,100179.69
2017-09-05T14:06:12.367Z,100185.77
2017-09-05T14:09:13.685Z,100179.92
2017-09-05T14:12:15.003Z,100186.58
2017-09-05T14:15:16.321Z,100192.33
2017-09-05T14:18:17.645Z,100191.14
2017-09-05T14:21:18.980Z,100193.44
2017-09-05T14:24:20.324Z,100193.23
2017-09-05T14:27:21.686Z,100184.23
2017-09-05T14:30:23.049Z,100194.62
2017-09-05T14:33:24.400Z,100188.34
2017-09-05T14:36:25.693Z,100184.48
2017-09-05T14:39:27.049Z,100184.97
2017-09-05T14:42:28.393Z,100173.21
2017-09-05T14:45:29.796Z,100183.02
2017-09-05T14:48:31.133Z,100172.47
2017-09-05T14:51:32.501Z,100159.70
2017-09-05T14:54:34.032Z,100156.25
2017-09-05T14:57:35.352Z,100146.52
2017-09-05T15:00:36.664Z,100141.32
2017-09-05T15:03:37.969Z,100150.61
2017-09-05T15:06:39.293Z,100145.03
2017-09-05T15:09:40.581Z,100136.89
2017-09-05T15:12:44.878Z,100135.53
2017-09-05T15:15:46.529Z,100134.70
2017-09-05T15:18:47.853Z,100132.33
2017-09-05T15:21:49.185Z,100124.16
2017-09-05T15:24:50.492Z,100123.78
2017-09-05T15:27:51.853Z,100121.97
2017-09-05T15:30:53.165Z,100124.43
2017-09-05T15:33:54.508Z,100117.42
2017-09-05T15:36:55.858Z,100113.12
2017-09-05T15:39:57.178Z,100118.56
2017-09-05T15:42:58.509Z,100107.98
2017-09-05T15:45:59.836Z,100113.22
2017-09-05T15:49:01.202Z,100110.59
2017-09-05T15:52:02.501Z,100105.12
2017-09-05T15:55:03.856Z,100108.79
2017-09-05T15:58:05.172Z,100103.03
2017-09-05T16:01:06.557Z,100105.85
2017-09-05T16:04:07.884Z,100107.52
2017-09-05T16:07:09.197Z,100105.38
2017-09-05T16:10:10.527Z,100097.31
2017-09-05T16:13:11.842Z,100110.61
2017-09-05T16:16:13.160Z,100088.58
2017-09-05T16:19:14.465Z,100098.86
2017-09-05T16:22:15.764Z,100099.15
2017-09-05T16:25:17.132Z,100098.30
2017-09-05T16:28:18.437Z,100090.81
2017-09-05T16:31:19.817Z,100086.19
2017-09-05T16:34:21.117Z,100081.42
2017-09-05T16:37:22.462Z,100087.91
2017-09-05T16:40:23.777Z,100080.02
2017-09-05T16:43:25.085Z,100089.06
2017-09-05T16:46:26.452Z,100079.43
2017-09-05T16:49:27.775Z,100082.98
2017-09-05T16:52:29.077Z,100084.63
2017-09-05T16:55:30.420Z,100089.57
2017-09-05T16:58:31.803Z,100082.56
2017-09-05T17:01:33.185Z,100085.69
2017-09-05T17:04:34.511Z,100078.63
2017-09-05T17:07:35.837Z,100072.28
2017-09-05T17:10:37.201Z,100078.98
2017-09-05T17:13:38.552Z,100077.31
2017-09-05T17:16:39.911Z,100070.81
2017-09-05T17:19:41.238Z,100076.45
2017-09-05T17:22:42.577Z,100072.71
2017-09-05T17:25:43.876Z,100078.66
2017-09-05T17:28:45.193Z,100070.74
2017-09-05T17:31:46.501Z,100079.89
2017-09-05T17:34:47.845Z,100073.08
2017-09-05T17:37:49.175Z,100068.13
2017-09-05T17:40:50.518Z,100074.80
2017-09-05T17:43:51.912Z,100068.05
2017-09-05T17:46:53.213Z,100062.12
2017-09-05T17:49:54.560Z,100066.67
2017-09-05T17:52:55.877Z,100065.22
2017-09-05T17:55:57.181Z,100063.44
2017-09-05T17:58:58.493Z,100065.72
2017-09-05T18:01:59.912Z,100066.33
2017-09-05T18:05:01.202Z,100066.70
2017-09-05T18:08:02.541Z,100075.24
2017-09-05T18:11:03.840Z,100071.52
2017-09-05T18:14:05.221Z,100073.53
2017-09-05T18:17:06.677Z,100080.97
2017-09-05T18:20:07.969Z,100074.05
2017-09-05T18:23:09.308Z,100083.14
2017-09-05T18:26:10.628Z,100077.47
2017-09-05T18:29:11.951Z,100082.18
2017-09-05T18:32:13.307Z,100086.92
2017-09-05T18:35:14.637Z,100077.98
2017-09-05T18:38:15.945Z,100085.97
2017-09-05T18:41:17.300Z,100081.50
2017-09-05T18:44:19.637Z,100090.47
2017-09-05T18:47:20.921Z,100097.52
2017-09-05T18:50:22.241Z,100101.20
2017-09-05T18:53:23.529Z,100099.25
2017-09-05T18:56:24.846Z,100100.60
2017-09-05T18:59:26.157Z,100105.42
2017-09-05T19:02:27.461Z,100105.19
2017-09-05T19:05:28.809Z,100090.88
2017-09-05T19:08:30.198Z,100100.75
2017-09-05T19:11:31.688Z,100100.27
2017-09-05T19:14:33.009Z,100093.09
2017-09-05T19:17:34.379Z,100092.02
2017-09-05T19:20:35.699Z,100089.16
2017-09-05T19:23:37.078Z,100086.41
2017-09-05T19:26:38.424Z,100087.34
2017-09-05T19:29:39.808Z,100081.27
2017-09-05T19:32:41.158Z,100072.39
2017-09-05T19:35:42.487Z,100078.61
2017-09-05T19:38:43.814Z,100080.41
2017-09-05T19:41:45.194Z,100078.73
2017-09-05T19:44:46.505Z,100082.19
2017-09-05T19:47:47.862Z,100080.28
2017-09-05T19:50:49.476Z,100081.51
2017-09-05T19:53:50.833Z,100083.55
2017-09-05T19:56:52.211Z,100075.80
2017-09-05T19:59:53.547Z,100076.20
2017-09-05T20:02:54.916Z,100072.02
2017-09-05T20:05:56.261Z,100063.91
2017-09-05T20:08:57.661Z,100073.68
2017-09-05T20:11:59.201Z,100066.71
2017-09-05T20:15:00.555Z,100080.73
2017-09-05T20:18:01.952Z,100068.70
2017-09-05T20:21:03.276Z,100072.02
2017-09-05T20:24:04.610Z,100092.27
2017-09-05T20:27:05.957Z,100104.20
2017-09-05T20:30:07.339Z,100099.05
2017-09-05T20:33:08.714Z,100100.55
2017-09-05T20:36:10.268Z,100104.87
2017-09-05T20:39:11.645Z,100099.05
2017-09-05T20:42:18.086Z,100105.67
2017-09-05T20:45:19.440Z,100097.09
2017-09-05T20:48:20.820Z,100099.24
2017-09-05T20:51:22.166Z,100098.08
2017-09-05T20:54:23.537Z,100095.23
2017-09-05T20:57:24.912Z,100091.73
2017-09-05T21:00:26.287Z,100092.55
2017-09-05T21:03:27.652Z,100083.48
2017-09-05T21:06:28.978Z,100088.11
2017-09-05T21:09:30.333Z,100083.12
2017-09-05T21:12:31.650Z,100076.61
2017-09-05T21:15:33.041Z,100077.97
2017-09-05T21:18:34.384Z,100081.77
2017-09-05T21:21:35.737Z,100077.70
2017-09-05T21:24:37.089Z,100077.37
2017-09-05T21:27:38.368Z,100090.71
2017-09-05T21:30:39.702Z,100082.67
2017-09-05T21:33:41.052Z,100080.80
2017-09-05T21:36:42.361Z,100073.08
2017-09-05T21:39:43.677Z,100076.04
2017-09-05T21:42:45.026Z,100071.51
2017-09-05T21:45:46.510Z,100077.48
2017-09-05T21:48:47.824Z,100075.36
2017-09-05T21:51:49.166Z,100077.55
2017-09-05T21:54:50.485Z,100071.41
2017-09-05T21:57:51.824Z,100076.33
2017-09-05T22:00:53.105Z,100065.64
2017-09-05T22:03:54.480Z,100069.88
2017-09-05T22:06:55.829Z,100070.06
2017-09-05T22:09:57.178Z,100061.06
2017-09-05T22:12:58.461Z,100071.27
2017-09-05T22:15:59.797Z,100070.50
2017-09-05T22:19:07.989Z,100066.91
2017-09-05T22:22:09.265Z,100074.64
2017-09-05T22:28:56.861Z,100074.03
2017-09-05T22:31:58.259Z,100074.94
2017-09-05T22:34:59.560Z,100060.58
2017-09-05T22:38:00.877Z,100060.67
2017-09-05T22:41:02.201Z,100066.88
2017-09-05T22:44:04.332Z,100060.58
2017-09-05T22:47:05.909Z,100052.55
2017-09-05T22:50:07.245Z,100047.75
2017-09-05T22:53:08.562Z,100055.00
2017-09-05T22:56:09.881Z,100061.05
2017-09-05T22:59:11.189Z,100063.62
2017-09-05T23:02:12.525Z,100066.94
2017-09-05T23:05:13.845Z,100067.44
2017-09-05T23:08:15.161Z,100057.72
2017-09-05T23:11:16.555Z,100058.17
2017-09-05T23:14:17.992Z,100053.19
2017-09-05T23:17:19.297Z,100056.50
2017-09-05T23:20:20.637Z,100054.90
2017-09-05T23:23:21.918Z,100062.91
2017-09-05T23:26:23.262Z,100063.19
2017-09-05T23:29:24.537Z,100052.55
2017-09-05T23:32:25.936Z,100051.43
2017-09-05T23:35:27.256Z,100056.17
2017-09-05T23:38:28.597Z,100056.17
2017-09-05T23:41:29.893Z,100049.67
2017-09-05T23:44:31.218Z,100039.51
2017-09-05T23:47:32.544Z,100042.89
2017-09-05T23:50:33.877Z,100038.48
2017-09-05T23:53:35.345Z,100041.93
2017-09-05T23:56:36.680Z,100034.05
2017-09-05T23:59:38.052Z,100029.08
